Fort Dodge, Iowa
Current Conditions -  °F | °C
As of 2:55 PM on Tuesday 25 Nov 2014 (Local Time) from KFOD Reporting Station
Scattered Clouds Scattered Clouds  
Wind Chill: -3°   Ceiling: Unl
Heat Index:   Visibility: 10mi
Dew Point: -12°   Wind: 9mph
Humidity: 38%   Direction: 190°S
Pressure: 30.03"   Gusts: NA
Location:  42.5°N, 94.18°W
Report Text: KFOD 252055Z AUTO 19008KT 10SM SCT075 01/M12 A3003 RMK AO1 57020
Loading
Personal Weather Stations






























Interactive Weather Map New forecast layout! Learn more

10-Day Weather Forecast

Advertisements
Track Severe Weather on mobile